sensor_id;sensor_type;location;lat;lon;timestamp;P1;durP1;ratioP1;P2;durP2;ratioP2
41887;SDS011;63122;52.424;13.458;2023-04-06T00:00:05;10.20;;;6.83;;
41887;SDS011;63122;52.424;13.458;2023-04-06T00:02:31;11.97;;;6.20;;
41887;SDS011;63122;52.424;13.458;2023-04-06T00:04:35;11.83;;;6.43;;
41887;SDS011;63122;52.424;13.458;2023-04-06T00:06:31;10.37;;;6.80;;
41887;SDS011;63122;52.424;13.458;2023-04-06T00:08:27;11.30;;;6.53;;
41887;SDS011;63122;52.424;13.458;2023-04-06T00:10:24;11.33;;;7.10;;
41887;SDS011;63122;52.424;13.458;2023-04-06T00:12:24;14.03;;;6.90;;
41887;SDS011;63122;52.424;13.458;2023-04-06T00:19:12;12.23;;;6.43;;
41887;SDS011;63122;52.424;13.458;2023-04-06T00:21:11;14.57;;;7.27;;
41887;SDS011;63122;52.424;13.458;2023-04-06T00:23:07;11.37;;;7.33;;
41887;SDS011;63122;52.424;13.458;2023-04-06T00:25:03;10.80;;;7.03;;
41887;SDS011;63122;52.424;13.458;2023-04-06T00:27:06;15.53;;;6.97;;
41887;SDS011;63122;52.424;13.458;2023-04-06T00:29:03;11.33;;;6.80;;
41887;SDS011;63122;52.424;13.458;2023-04-06T00:31:07;12.27;;;7.20;;
41887;SDS011;63122;52.424;13.458;2023-04-06T00:33:05;12.53;;;7.17;;
41887;SDS011;63122;52.424;13.458;2023-04-06T00:35:07;11.60;;;7.83;;
41887;SDS011;63122;52.424;13.458;2023-04-06T00:37:08;9.87;;;7.17;;
41887;SDS011;63122;52.424;13.458;2023-04-06T00:39:07;12.43;;;7.10;;
41887;SDS011;63122;52.424;13.458;2023-04-06T00:41:12;12.90;;;7.10;;
41887;SDS011;63122;52.424;13.458;2023-04-06T00:43:17;11.50;;;7.07;;
41887;SDS011;63122;52.424;13.458;2023-04-06T00:48:43;13.60;;;7.00;;
41887;SDS011;63122;52.424;13.458;2023-04-06T00:50:42;12.63;;;6.57;;
41887;SDS011;63122;52.424;13.458;2023-04-06T00:52:44;10.27;;;6.33;;
41887;SDS011;63122;52.424;13.458;2023-04-06T00:54:42;17.60;;;7.47;;
41887;SDS011;63122;52.424;13.458;2023-04-06T00:56:41;11.17;;;6.07;;
41887;SDS011;63122;52.424;13.458;2023-04-06T00:58:51;11.07;;;6.73;;
41887;SDS011;63122;52.424;13.458;2023-04-06T01:01:08;11.83;;;7.03;;
41887;SDS011;63122;52.424;13.458;2023-04-06T01:03:13;14.37;;;6.30;;
41887;SDS011;63122;52.424;13.458;2023-04-06T01:05:34;9.67;;;6.43;;
41887;SDS011;63122;52.424;13.458;2023-04-06T01:07:40;17.80;;;6.83;;
41887;SDS011;63122;52.424;13.458;2023-04-06T01:09:39;11.47;;;6.77;;
41887;SDS011;63122;52.424;13.458;2023-04-06T01:11:35;11.10;;;6.37;;
41887;SDS011;63122;52.424;13.458;2023-04-06T01:14:42;12.17;;;6.87;;
41887;SDS011;63122;52.424;13.458;2023-04-06T01:17:31;16.27;;;6.67;;
41887;SDS011;63122;52.424;13.458;2023-04-06T01:19:31;13.17;;;7.07;;
41887;SDS011;63122;52.424;13.458;2023-04-06T01:25:41;13.23;;;8.13;;
41887;SDS011;63122;52.424;13.458;2023-04-06T01:27:47;13.13;;;7.13;;
41887;SDS011;63122;52.424;13.458;2023-04-06T01:29:55;14.47;;;6.80;;
41887;SDS011;63122;52.424;13.458;2023-04-06T01:31:57;10.27;;;6.90;;
41887;SDS011;63122;52.424;13.458;2023-04-06T01:37:17;10.37;;;6.97;;
41887;SDS011;63122;52.424;13.458;2023-04-06T01:44:23;11.90;;;7.40;;
41887;SDS011;63122;52.424;13.458;2023-04-06T01:46:18;12.83;;;7.67;;
41887;SDS011;63122;52.424;13.458;2023-04-06T01:48:14;9.90;;;7.00;;
41887;SDS011;63122;52.424;13.458;2023-04-06T01:50:09;12.80;;;7.80;;
41887;SDS011;63122;52.424;13.458;2023-04-06T01:52:06;13.17;;;7.57;;
41887;SDS011;63122;52.424;13.458;2023-04-06T01:54:02;12.17;;;7.27;;
41887;SDS011;63122;52.424;13.458;2023-04-06T01:55:58;12.83;;;7.87;;
41887;SDS011;63122;52.424;13.458;2023-04-06T01:57:56;10.90;;;7.23;;
41887;SDS011;63122;52.424;13.458;2023-04-06T01:59:51;13.47;;;7.23;;
41887;SDS011;63122;52.424;13.458;2023-04-06T02:01:47;12.57;;;7.33;;
41887;SDS011;63122;52.424;13.458;2023-04-06T02:03:43;12.23;;;7.27;;
41887;SDS011;63122;52.424;13.458;2023-04-06T02:05:38;12.87;;;6.97;;
41887;SDS011;63122;52.424;13.458;2023-04-06T02:07:37;13.40;;;7.23;;
41887;SDS011;63122;52.424;13.458;2023-04-06T02:09:32;12.13;;;6.50;;
41887;SDS011;63122;52.424;13.458;2023-04-06T02:11:28;11.73;;;6.60;;
41887;SDS011;63122;52.424;13.458;2023-04-06T02:13:26;11.53;;;6.93;;
41887;SDS011;63122;52.424;13.458;2023-04-06T02:15:22;11.30;;;7.10;;
41887;SDS011;63122;52.424;13.458;2023-04-06T02:17:18;10.90;;;7.33;;
41887;SDS011;63122;52.424;13.458;2023-04-06T02:19:14;11.93;;;7.33;;
41887;SDS011;63122;52.424;13.458;2023-04-06T02:21:11;14.67;;;7.13;;
41887;SDS011;63122;52.424;13.458;2023-04-06T02:23:12;12.80;;;6.73;;
41887;SDS011;63122;52.424;13.458;2023-04-06T02:25:07;13.77;;;7.83;;
41887;SDS011;63122;52.424;13.458;2023-04-06T02:27:04;12.60;;;8.20;;
41887;SDS011;63122;52.424;13.458;2023-04-06T02:29:02;15.63;;;8.07;;
41887;SDS011;63122;52.424;13.458;2023-04-06T02:31:00;15.27;;;8.23;;
41887;SDS011;63122;52.424;13.458;2023-04-06T02:32:55;10.50;;;8.03;;
41887;SDS011;63122;52.424;13.458;2023-04-06T02:34:51;15.57;;;8.57;;
41887;SDS011;63122;52.424;13.458;2023-04-06T02:36:47;15.87;;;10.17;;
41887;SDS011;63122;52.424;13.458;2023-04-06T02:38:43;13.97;;;9.27;;
41887;SDS011;63122;52.424;13.458;2023-04-06T02:40:40;19.80;;;9.57;;
41887;SDS011;63122;52.424;13.458;2023-04-06T02:42:36;16.83;;;10.20;;
41887;SDS011;63122;52.424;13.458;2023-04-06T02:44:34;14.00;;;9.87;;
41887;SDS011;63122;52.424;13.458;2023-04-06T02:46:32;15.90;;;10.17;;
41887;SDS011;63122;52.424;13.458;2023-04-06T02:48:25;15.77;;;9.30;;
41887;SDS011;63122;52.424;13.458;2023-04-06T02:50:21;15.07;;;10.20;;
41887;SDS011;63122;52.424;13.458;2023-04-06T02:52:16;19.47;;;10.07;;
41887;SDS011;63122;52.424;13.458;2023-04-06T02:54:14;18.13;;;10.13;;
41887;SDS011;63122;52.424;13.458;2023-04-06T02:56:10;17.10;;;9.67;;
41887;SDS011;63122;52.424;13.458;2023-04-06T02:58:06;12.83;;;9.30;;
41887;SDS011;63122;52.424;13.458;2023-04-06T03:00:04;14.67;;;9.07;;
41887;SDS011;63122;52.424;13.458;2023-04-06T03:02:02;16.17;;;9.03;;
41887;SDS011;63122;52.424;13.458;2023-04-06T03:03:57;13.40;;;9.97;;
41887;SDS011;63122;52.424;13.458;2023-04-06T03:05:52;21.43;;;9.73;;
41887;SDS011;63122;52.424;13.458;2023-04-06T03:07:51;13.73;;;9.30;;
41887;SDS011;63122;52.424;13.458;2023-04-06T03:09:47;14.00;;;8.93;;
41887;SDS011;63122;52.424;13.458;2023-04-06T03:11:42;17.60;;;9.17;;
41887;SDS011;63122;52.424;13.458;2023-04-06T03:13:38;15.23;;;8.90;;
41887;SDS011;63122;52.424;13.458;2023-04-06T03:15:36;13.33;;;8.40;;
41887;SDS011;63122;52.424;13.458;2023-04-06T03:17:34;17.30;;;8.33;;
41887;SDS011;63122;52.424;13.458;2023-04-06T03:19:29;15.70;;;9.30;;
41887;SDS011;63122;52.424;13.458;2023-04-06T03:21:25;17.50;;;9.53;;
41887;SDS011;63122;52.424;13.458;2023-04-06T03:23:20;17.07;;;9.10;;
41887;SDS011;63122;52.424;13.458;2023-04-06T03:25:16;23.47;;;13.10;;
41887;SDS011;63122;52.424;13.458;2023-04-06T03:27:11;19.50;;;11.20;;
41887;SDS011;63122;52.424;13.458;2023-04-06T03:29:07;54.60;;;26.20;;
41887;SDS011;63122;52.424;13.458;2023-04-06T03:31:05;20.83;;;9.90;;
41887;SDS011;63122;52.424;13.458;2023-04-06T03:33:00;25.73;;;12.70;;
41887;SDS011;63122;52.424;13.458;2023-04-06T03:34:55;16.37;;;9.43;;
41887;SDS011;63122;52.424;13.458;2023-04-06T03:36:51;17.30;;;9.10;;
41887;SDS011;63122;52.424;13.458;2023-04-06T03:39:00;16.07;;;8.23;;
41887;SDS011;63122;52.424;13.458;2023-04-06T03:40:55;19.30;;;10.63;;
41887;SDS011;63122;52.424;13.458;2023-04-06T03:42:51;20.53;;;9.23;;
41887;SDS011;63122;52.424;13.458;2023-04-06T03:44:47;18.33;;;10.00;;
41887;SDS011;63122;52.424;13.458;2023-04-06T03:46:44;19.23;;;9.00;;
41887;SDS011;63122;52.424;13.458;2023-04-06T03:48:40;16.17;;;9.37;;
41887;SDS011;63122;52.424;13.458;2023-04-06T03:50:35;15.17;;;9.57;;
41887;SDS011;63122;52.424;13.458;2023-04-06T03:52:31;19.53;;;9.20;;
41887;SDS011;63122;52.424;13.458;2023-04-06T03:54:26;19.17;;;8.37;;
41887;SDS011;63122;52.424;13.458;2023-04-06T03:56:25;17.70;;;9.43;;
41887;SDS011;63122;52.424;13.458;2023-04-06T03:58:21;14.87;;;9.00;;
41887;SDS011;63122;52.424;13.458;2023-04-06T04:00:17;21.03;;;10.90;;
41887;SDS011;63122;52.424;13.458;2023-04-06T04:02:15;21.00;;;10.67;;
41887;SDS011;63122;52.424;13.458;2023-04-06T04:04:11;31.20;;;16.50;;
41887;SDS011;63122;52.424;13.458;2023-04-06T04:06:08;18.63;;;10.67;;
41887;SDS011;63122;52.424;13.458;2023-04-06T04:08:06;21.00;;;11.17;;
41887;SDS011;63122;52.424;13.458;2023-04-06T04:10:01;16.60;;;10.33;;
41887;SDS011;63122;52.424;13.458;2023-04-06T04:11:57;17.07;;;10.60;;
41887;SDS011;63122;52.424;13.458;2023-04-06T04:13:53;19.67;;;11.23;;
41887;SDS011;63122;52.424;13.458;2023-04-06T04:15:48;20.60;;;9.93;;
41887;SDS011;63122;52.424;13.458;2023-04-06T04:17:47;23.70;;;11.13;;
41887;SDS011;63122;52.424;13.458;2023-04-06T04:19:43;19.03;;;11.30;;
41887;SDS011;63122;52.424;13.458;2023-04-06T04:21:42;17.30;;;9.10;;
41887;SDS011;63122;52.424;13.458;2023-04-06T04:23:40;19.27;;;10.80;;
41887;SDS011;63122;52.424;13.458;2023-04-06T04:25:35;15.20;;;9.53;;
41887;SDS011;63122;52.424;13.458;2023-04-06T04:27:31;23.03;;;10.60;;
41887;SDS011;63122;52.424;13.458;2023-04-06T04:29:26;24.37;;;10.37;;
41887;SDS011;63122;52.424;13.458;2023-04-06T04:31:22;18.80;;;9.57;;
41887;SDS011;63122;52.424;13.458;2023-04-06T04:33:20;16.80;;;9.97;;
41887;SDS011;63122;52.424;13.458;2023-04-06T04:35:15;26.33;;;10.80;;
41887;SDS011;63122;52.424;13.458;2023-04-06T04:37:11;20.47;;;9.37;;
41887;SDS011;63122;52.424;13.458;2023-04-06T04:39:06;16.83;;;9.50;;
41887;SDS011;63122;52.424;13.458;2023-04-06T04:41:01;13.63;;;7.77;;
41887;SDS011;63122;52.424;13.458;2023-04-06T04:42:57;19.93;;;8.23;;
41887;SDS011;63122;52.424;13.458;2023-04-06T04:44:52;11.60;;;7.27;;
41887;SDS011;63122;52.424;13.458;2023-04-06T04:46:48;22.23;;;7.70;;
41887;SDS011;63122;52.424;13.458;2023-04-06T04:48:46;14.43;;;7.20;;
41887;SDS011;63122;52.424;13.458;2023-04-06T04:50:42;21.60;;;7.67;;
41887;SDS011;63122;52.424;13.458;2023-04-06T04:52:37;14.37;;;7.10;;
41887;SDS011;63122;52.424;13.458;2023-04-06T04:54:33;12.27;;;6.90;;
41887;SDS011;63122;52.424;13.458;2023-04-06T04:56:28;15.10;;;7.50;;
41887;SDS011;63122;52.424;13.458;2023-04-06T04:58:24;15.77;;;6.90;;
41887;SDS011;63122;52.424;13.458;2023-04-06T05:00:19;12.13;;;6.63;;
41887;SDS011;63122;52.424;13.458;2023-04-06T05:02:15;12.67;;;6.43;;
41887;SDS011;63122;52.424;13.458;2023-04-06T05:04:13;15.43;;;7.10;;
41887;SDS011;63122;52.424;13.458;2023-04-06T05:06:09;17.50;;;6.93;;
41887;SDS011;63122;52.424;13.458;2023-04-06T05:08:04;18.87;;;6.73;;
41887;SDS011;63122;52.424;13.458;2023-04-06T05:10:00;17.67;;;6.67;;
41887;SDS011;63122;52.424;13.458;2023-04-06T05:11:55;17.57;;;6.53;;
41887;SDS011;63122;52.424;13.458;2023-04-06T05:13:51;16.43;;;6.43;;
41887;SDS011;63122;52.424;13.458;2023-04-06T05:15:46;13.10;;;5.80;;
41887;SDS011;63122;52.424;13.458;2023-04-06T05:17:42;19.33;;;5.97;;
41887;SDS011;63122;52.424;13.458;2023-04-06T05:19:40;13.13;;;5.90;;
41887;SDS011;63122;52.424;13.458;2023-04-06T05:21:36;16.47;;;5.93;;
41887;SDS011;63122;52.424;13.458;2023-04-06T05:23:31;13.77;;;5.73;;
41887;SDS011;63122;52.424;13.458;2023-04-06T05:25:27;10.87;;;5.77;;
41887;SDS011;63122;52.424;13.458;2023-04-06T05:27:22;9.30;;;5.30;;
41887;SDS011;63122;52.424;13.458;2023-04-06T05:29:18;15.37;;;5.53;;
41887;SDS011;63122;52.424;13.458;2023-04-06T05:31:14;13.10;;;5.83;;
41887;SDS011;63122;52.424;13.458;2023-04-06T05:33:10;17.27;;;5.77;;
41887;SDS011;63122;52.424;13.458;2023-04-06T05:35:08;13.37;;;5.67;;
41887;SDS011;63122;52.424;13.458;2023-04-06T05:37:05;12.10;;;5.23;;
41887;SDS011;63122;52.424;13.458;2023-04-06T05:39:00;10.07;;;5.60;;
41887;SDS011;63122;52.424;13.458;2023-04-06T05:40:55;91.73;;;44.80;;
41887;SDS011;63122;52.424;13.458;2023-04-06T05:42:50;22.03;;;10.87;;
41887;SDS011;63122;52.424;13.458;2023-04-06T05:44:46;13.47;;;6.37;;
41887;SDS011;63122;52.424;13.458;2023-04-06T05:46:42;10.07;;;6.07;;
41887;SDS011;63122;52.424;13.458;2023-04-06T05:48:38;14.97;;;6.03;;
41887;SDS011;63122;52.424;13.458;2023-04-06T05:50:35;11.73;;;6.20;;
41887;SDS011;63122;52.424;13.458;2023-04-06T05:52:31;11.13;;;6.60;;
41887;SDS011;63122;52.424;13.458;2023-04-06T05:54:26;10.67;;;6.10;;
41887;SDS011;63122;52.424;13.458;2023-04-06T05:56:22;10.17;;;6.57;;
41887;SDS011;63122;52.424;13.458;2023-04-06T05:58:18;10.70;;;6.30;;
41887;SDS011;63122;52.424;13.458;2023-04-06T06:00:14;11.13;;;6.17;;
41887;SDS011;63122;52.424;13.458;2023-04-06T06:02:09;18.73;;;6.90;;
41887;SDS011;63122;52.424;13.458;2023-04-06T06:04:06;14.77;;;6.37;;
41887;SDS011;63122;52.424;13.458;2023-04-06T06:06:04;8.70;;;5.77;;
41887;SDS011;63122;52.424;13.458;2023-04-06T06:08:00;18.20;;;7.30;;
41887;SDS011;63122;52.424;13.458;2023-04-06T06:09:56;13.20;;;6.77;;
41887;SDS011;63122;52.424;13.458;2023-04-06T06:11:52;25.80;;;7.63;;
41887;SDS011;63122;52.424;13.458;2023-04-06T06:13:48;15.07;;;6.60;;
41887;SDS011;63122;52.424;13.458;2023-04-06T06:15:43;16.27;;;6.50;;
41887;SDS011;63122;52.424;13.458;2023-04-06T06:17:39;19.33;;;6.47;;
41887;SDS011;63122;52.424;13.458;2023-04-06T06:19:35;15.93;;;7.33;;
41887;SDS011;63122;52.424;13.458;2023-04-06T06:21:33;15.33;;;6.30;;
41887;SDS011;63122;52.424;13.458;2023-04-06T06:23:29;13.70;;;6.60;;
41887;SDS011;63122;52.424;13.458;2023-04-06T06:25:43;14.07;;;6.37;;
41887;SDS011;63122;52.424;13.458;2023-04-06T06:27:56;18.30;;;6.50;;
41887;SDS011;63122;52.424;13.458;2023-04-06T06:29:52;14.87;;;6.97;;
41887;SDS011;63122;52.424;13.458;2023-04-06T06:31:48;15.13;;;6.80;;
41887;SDS011;63122;52.424;13.458;2023-04-06T06:33:43;16.50;;;7.00;;
41887;SDS011;63122;52.424;13.458;2023-04-06T06:35:42;15.80;;;6.17;;
41887;SDS011;63122;52.424;13.458;2023-04-06T06:37:40;14.60;;;6.43;;
41887;SDS011;63122;52.424;13.458;2023-04-06T06:39:36;12.13;;;6.07;;
41887;SDS011;63122;52.424;13.458;2023-04-06T06:41:31;15.20;;;6.00;;
41887;SDS011;63122;52.424;13.458;2023-04-06T06:43:27;13.33;;;5.90;;
41887;SDS011;63122;52.424;13.458;2023-04-06T06:45:23;10.23;;;6.00;;
41887;SDS011;63122;52.424;13.458;2023-04-06T06:47:18;15.00;;;5.77;;
41887;SDS011;63122;52.424;13.458;2023-04-06T06:49:14;10.70;;;5.70;;
41887;SDS011;63122;52.424;13.458;2023-04-06T06:51:10;17.37;;;5.67;;
41887;SDS011;63122;52.424;13.458;2023-04-06T06:53:08;9.20;;;5.43;;
41887;SDS011;63122;52.424;13.458;2023-04-06T06:55:04;7.90;;;4.93;;
41887;SDS011;63122;52.424;13.458;2023-04-06T06:57:00;18.27;;;5.27;;
41887;SDS011;63122;52.424;13.458;2023-04-06T06:58:56;8.93;;;5.00;;
41887;SDS011;63122;52.424;13.458;2023-04-06T07:00:55;14.40;;;4.83;;
41887;SDS011;63122;52.424;13.458;2023-04-06T07:02:52;10.33;;;4.97;;
41887;SDS011;63122;52.424;13.458;2023-04-06T07:04:47;16.90;;;5.47;;
41887;SDS011;63122;52.424;13.458;2023-04-06T07:06:43;12.20;;;4.93;;
41887;SDS011;63122;52.424;13.458;2023-04-06T07:08:41;9.07;;;4.97;;
41887;SDS011;63122;52.424;13.458;2023-04-06T07:10:37;12.03;;;5.10;;
41887;SDS011;63122;52.424;13.458;2023-04-06T07:12:32;11.20;;;4.97;;
41887;SDS011;63122;52.424;13.458;2023-04-06T07:14:28;12.37;;;4.53;;
41887;SDS011;63122;52.424;13.458;2023-04-06T07:16:23;10.83;;;4.47;;
41887;SDS011;63122;52.424;13.458;2023-04-06T07:18:19;8.87;;;4.40;;
41887;SDS011;63122;52.424;13.458;2023-04-06T07:20:15;9.83;;;4.20;;
41887;SDS011;63122;52.424;13.458;2023-04-06T07:22:11;9.30;;;4.47;;
41887;SDS011;63122;52.424;13.458;2023-04-06T07:24:09;10.07;;;4.10;;
41887;SDS011;63122;52.424;13.458;2023-04-06T07:26:05;11.23;;;5.00;;
41887;SDS011;63122;52.424;13.458;2023-04-06T07:28:01;13.93;;;4.67;;
41887;SDS011;63122;52.424;13.458;2023-04-06T07:29:57;12.07;;;4.47;;
41887;SDS011;63122;52.424;13.458;2023-04-06T07:31:52;7.17;;;4.53;;
41887;SDS011;63122;52.424;13.458;2023-04-06T07:33:48;7.70;;;4.37;;
41887;SDS011;63122;52.424;13.458;2023-04-06T07:35:43;12.03;;;4.73;;
41887;SDS011;63122;52.424;13.458;2023-04-06T07:37:39;12.07;;;4.37;;
41887;SDS011;63122;52.424;13.458;2023-04-06T07:39:37;9.93;;;4.90;;
41887;SDS011;63122;52.424;13.458;2023-04-06T07:41:33;8.63;;;4.97;;
41887;SDS011;63122;52.424;13.458;2023-04-06T07:43:28;10.40;;;4.53;;
41887;SDS011;63122;52.424;13.458;2023-04-06T07:45:24;8.40;;;4.43;;
41887;SDS011;63122;52.424;13.458;2023-04-06T07:47:19;9.20;;;4.57;;
41887;SDS011;63122;52.424;13.458;2023-04-06T07:49:15;13.13;;;5.13;;
41887;SDS011;63122;52.424;13.458;2023-04-06T07:51:13;7.37;;;4.10;;
41887;SDS011;63122;52.424;13.458;2023-04-06T07:53:10;9.97;;;4.37;;
41887;SDS011;63122;52.424;13.458;2023-04-06T07:55:08;8.47;;;4.37;;
41887;SDS011;63122;52.424;13.458;2023-04-06T07:57:04;9.30;;;4.87;;
41887;SDS011;63122;52.424;13.458;2023-04-06T07:59:00;7.97;;;4.53;;
41887;SDS011;63122;52.424;13.458;2023-04-06T08:00:56;8.03;;;4.30;;
41887;SDS011;63122;52.424;13.458;2023-04-06T08:02:52;7.93;;;4.20;;
41887;SDS011;63122;52.424;13.458;2023-04-06T08:04:48;11.13;;;4.47;;
41887;SDS011;63122;52.424;13.458;2023-04-06T08:06:45;8.03;;;3.90;;
41887;SDS011;63122;52.424;13.458;2023-04-06T08:08:41;6.63;;;4.00;;
41887;SDS011;63122;52.424;13.458;2023-04-06T08:10:39;10.40;;;4.50;;
41887;SDS011;63122;52.424;13.458;2023-04-06T08:12:35;7.10;;;3.97;;
41887;SDS011;63122;52.424;13.458;2023-04-06T08:14:31;7.27;;;3.90;;
41887;SDS011;63122;52.424;13.458;2023-04-06T08:16:27;4.70;;;3.30;;
41887;SDS011;63122;52.424;13.458;2023-04-06T08:18:22;6.83;;;3.30;;
41887;SDS011;63122;52.424;13.458;2023-04-06T08:20:18;7.30;;;3.20;;
41887;SDS011;63122;52.424;13.458;2023-04-06T08:22:13;7.07;;;3.47;;
41887;SDS011;63122;52.424;13.458;2023-04-06T08:24:10;10.63;;;3.40;;
41887;SDS011;63122;52.424;13.458;2023-04-06T08:26:08;5.23;;;2.77;;
41887;SDS011;63122;52.424;13.458;2023-04-06T08:28:05;5.07;;;2.90;;
41887;SDS011;63122;52.424;13.458;2023-04-06T08:30:01;7.53;;;3.10;;
41887;SDS011;63122;52.424;13.458;2023-04-06T08:31:58;5.33;;;2.80;;
41887;SDS011;63122;52.424;13.458;2023-04-06T08:33:57;5.07;;;2.90;;
41887;SDS011;63122;52.424;13.458;2023-04-06T08:35:53;7.30;;;2.60;;
41887;SDS011;63122;52.424;13.458;2023-04-06T08:37:48;6.17;;;2.70;;
41887;SDS011;63122;52.424;13.458;2023-04-06T08:39:44;7.77;;;2.80;;
41887;SDS011;63122;52.424;13.458;2023-04-06T08:41:45;4.23;;;2.57;;
41887;SDS011;63122;52.424;13.458;2023-04-06T08:43:42;6.90;;;2.90;;
41887;SDS011;63122;52.424;13.458;2023-04-06T08:45:40;7.50;;;2.80;;
41887;SDS011;63122;52.424;13.458;2023-04-06T08:47:36;7.37;;;2.70;;
41887;SDS011;63122;52.424;13.458;2023-04-06T08:49:35;11.20;;;2.80;;
41887;SDS011;63122;52.424;13.458;2023-04-06T08:51:34;7.90;;;2.73;;
41887;SDS011;63122;52.424;13.458;2023-04-06T08:53:32;6.87;;;2.70;;
41887;SDS011;63122;52.424;13.458;2023-04-06T08:55:28;6.20;;;2.50;;
41887;SDS011;63122;52.424;13.458;2023-04-06T08:57:27;6.60;;;2.50;;
41887;SDS011;63122;52.424;13.458;2023-04-06T08:59:24;4.43;;;2.47;;
41887;SDS011;63122;52.424;13.458;2023-04-06T09:01:21;7.43;;;2.80;;
41887;SDS011;63122;52.424;13.458;2023-04-06T09:03:18;6.33;;;2.40;;
41887;SDS011;63122;52.424;13.458;2023-04-06T09:05:15;7.77;;;2.63;;
41887;SDS011;63122;52.424;13.458;2023-04-06T09:07:12;5.70;;;2.60;;
41887;SDS011;63122;52.424;13.458;2023-04-06T09:09:08;7.40;;;2.57;;
41887;SDS011;63122;52.424;13.458;2023-04-06T09:11:04;5.90;;;2.57;;
41887;SDS011;63122;52.424;13.458;2023-04-06T09:13:05;4.40;;;2.30;;
41887;SDS011;63122;52.424;13.458;2023-04-06T09:15:04;3.23;;;2.00;;
41887;SDS011;63122;52.424;13.458;2023-04-06T09:17:02;4.03;;;2.23;;
41887;SDS011;63122;52.424;13.458;2023-04-06T09:19:03;5.23;;;2.33;;
41887;SDS011;63122;52.424;13.458;2023-04-06T09:21:00;5.67;;;2.10;;
41887;SDS011;63122;52.424;13.458;2023-04-06T09:23:00;4.63;;;2.23;;
41887;SDS011;63122;52.424;13.458;2023-04-06T09:24:56;6.73;;;2.30;;
41887;SDS011;63122;52.424;13.458;2023-04-06T09:26:52;8.73;;;2.20;;
41887;SDS011;63122;52.424;13.458;2023-04-06T09:28:50;4.83;;;2.17;;
41887;SDS011;63122;52.424;13.458;2023-04-06T09:30:48;3.83;;;2.20;;
41887;SDS011;63122;52.424;13.458;2023-04-06T09:32:44;2.73;;;1.90;;
41887;SDS011;63122;52.424;13.458;2023-04-06T09:34:44;4.10;;;2.00;;
41887;SDS011;63122;52.424;13.458;2023-04-06T09:36:49;5.73;;;2.37;;
41887;SDS011;63122;52.424;13.458;2023-04-06T09:38:54;8.20;;;2.43;;
41887;SDS011;63122;52.424;13.458;2023-04-06T09:40:55;5.67;;;3.00;;
41887;SDS011;63122;52.424;13.458;2023-04-06T09:42:53;3.07;;;1.90;;
41887;SDS011;63122;52.424;13.458;2023-04-06T09:44:54;4.10;;;1.97;;
41887;SDS011;63122;52.424;13.458;2023-04-06T09:46:51;4.70;;;2.57;;
41887;SDS011;63122;52.424;13.458;2023-04-06T09:48:51;5.97;;;2.28;;
41887;SDS011;63122;52.424;13.458;2023-04-06T09:50:49;6.53;;;2.10;;
41887;SDS011;63122;52.424;13.458;2023-04-06T09:52:50;6.40;;;1.90;;
41887;SDS011;63122;52.424;13.458;2023-04-06T09:54:49;4.40;;;2.30;;
41887;SDS011;63122;52.424;13.458;2023-04-06T09:56:47;3.50;;;2.20;;
41887;SDS011;63122;52.424;13.458;2023-04-06T09:58:46;4.97;;;2.40;;
41887;SDS011;63122;52.424;13.458;2023-04-06T10:00:48;3.87;;;2.23;;
41887;SDS011;63122;52.424;13.458;2023-04-06T10:02:53;3.40;;;1.83;;
41887;SDS011;63122;52.424;13.458;2023-04-06T10:04:55;4.73;;;1.83;;
41887;SDS011;63122;52.424;13.458;2023-04-06T10:06:53;5.17;;;1.70;;
41887;SDS011;63122;52.424;13.458;2023-04-06T10:08:51;4.60;;;1.50;;
41887;SDS011;63122;52.424;13.458;2023-04-06T10:10:48;2.53;;;1.53;;
41887;SDS011;63122;52.424;13.458;2023-04-06T10:12:47;3.60;;;1.87;;
41887;SDS011;63122;52.424;13.458;2023-04-06T10:14:43;3.13;;;1.67;;
41887;SDS011;63122;52.424;13.458;2023-04-06T10:16:42;2.63;;;1.83;;
41887;SDS011;63122;52.424;13.458;2023-04-06T10:18:38;3.97;;;2.00;;
41887;SDS011;63122;52.424;13.458;2023-04-06T10:20:39;3.23;;;1.97;;
41887;SDS011;63122;52.424;13.458;2023-04-06T10:22:40;6.90;;;2.20;;
41887;SDS011;63122;52.424;13.458;2023-04-06T10:24:44;2.87;;;1.77;;
41887;SDS011;63122;52.424;13.458;2023-04-06T10:26:40;4.63;;;1.57;;
41887;SDS011;63122;52.424;13.458;2023-04-06T10:28:35;3.57;;;1.53;;
41887;SDS011;63122;52.424;13.458;2023-04-06T10:30:32;4.60;;;2.07;;
41887;SDS011;63122;52.424;13.458;2023-04-06T10:32:34;5.33;;;2.07;;
41887;SDS011;63122;52.424;13.458;2023-04-06T10:34:34;4.00;;;1.93;;
41887;SDS011;63122;52.424;13.458;2023-04-06T10:36:31;4.87;;;1.93;;
41887;SDS011;63122;52.424;13.458;2023-04-06T10:38:34;4.10;;;2.00;;
41887;SDS011;63122;52.424;13.458;2023-04-06T10:40:32;3.43;;;1.83;;
41887;SDS011;63122;52.424;13.458;2023-04-06T10:42:36;6.20;;;1.97;;
41887;SDS011;63122;52.424;13.458;2023-04-06T10:44:33;4.27;;;2.00;;
41887;SDS011;63122;52.424;13.458;2023-04-06T10:46:37;7.57;;;2.60;;
41887;SDS011;63122;52.424;13.458;2023-04-06T10:48:39;5.73;;;2.37;;
41887;SDS011;63122;52.424;13.458;2023-04-06T10:50:35;3.23;;;2.00;;
41887;SDS011;63122;52.424;13.458;2023-04-06T10:52:31;4.23;;;1.90;;
41887;SDS011;63122;52.424;13.458;2023-04-06T10:54:26;3.60;;;2.23;;
41887;SDS011;63122;52.424;13.458;2023-04-06T10:56:25;3.47;;;2.30;;
41887;SDS011;63122;52.424;13.458;2023-04-06T10:58:23;9.33;;;2.00;;
41887;SDS011;63122;52.424;13.458;2023-04-06T11:00:20;4.40;;;2.30;;
41887;SDS011;63122;52.424;13.458;2023-04-06T11:02:27;4.57;;;1.80;;
41887;SDS011;63122;52.424;13.458;2023-04-06T11:04:26;40.83;;;17.30;;
41887;SDS011;63122;52.424;13.458;2023-04-06T11:06:23;4.17;;;2.07;;
41887;SDS011;63122;52.424;13.458;2023-04-06T11:08:25;4.33;;;2.07;;
41887;SDS011;63122;52.424;13.458;2023-04-06T11:10:21;5.93;;;2.63;;
41887;SDS011;63122;52.424;13.458;2023-04-06T11:12:21;3.67;;;2.20;;
41887;SDS011;63122;52.424;13.458;2023-04-06T11:14:18;3.17;;;1.97;;
41887;SDS011;63122;52.424;13.458;2023-04-06T11:16:14;4.60;;;2.63;;
41887;SDS011;63122;52.424;13.458;2023-04-06T11:18:11;2.77;;;2.10;;
41887;SDS011;63122;52.424;13.458;2023-04-06T11:20:10;3.00;;;2.30;;
41887;SDS011;63122;52.424;13.458;2023-04-06T11:22:06;3.72;;;2.33;;
41887;SDS011;63122;52.424;13.458;2023-04-06T11:24:06;3.42;;;2.17;;
41887;SDS011;63122;52.424;13.458;2023-04-06T11:26:03;2.83;;;2.10;;
41887;SDS011;63122;52.424;13.458;2023-04-06T11:28:00;3.92;;;2.40;;
41887;SDS011;63122;52.424;13.458;2023-04-06T11:29:56;3.55;;;2.40;;
41887;SDS011;63122;52.424;13.458;2023-04-06T11:31:52;4.15;;;2.58;;
41887;SDS011;63122;52.424;13.458;2023-04-06T11:33:52;4.47;;;2.28;;
41887;SDS011;63122;52.424;13.458;2023-04-06T11:35:54;4.00;;;2.20;;
41887;SDS011;63122;52.424;13.458;2023-04-06T11:37:52;2.65;;;2.15;;
41887;SDS011;63122;52.424;13.458;2023-04-06T11:39:50;3.00;;;2.08;;
41887;SDS011;63122;52.424;13.458;2023-04-06T11:41:47;5.78;;;2.50;;
41887;SDS011;63122;52.424;13.458;2023-04-06T11:43:46;4.18;;;2.42;;
41887;SDS011;63122;52.424;13.458;2023-04-06T11:45:43;3.63;;;2.40;;
41887;SDS011;63122;52.424;13.458;2023-04-06T11:47:38;5.03;;;2.45;;
41887;SDS011;63122;52.424;13.458;2023-04-06T11:49:37;5.78;;;2.40;;
41887;SDS011;63122;52.424;13.458;2023-04-06T11:51:37;4.05;;;2.17;;
41887;SDS011;63122;52.424;13.458;2023-04-06T11:53:33;4.65;;;2.90;;